sensor_id;sensor_type;location;lat;lon;timestamp;pressure;altitude;pressure_sealevel;temperature;humidity
74075;BME280;62428;51.412;5.432;2022-10-23T00:00:35;101256.53;;;11.73;89.90
74075;BME280;62428;51.412;5.432;2022-10-23T00:03:01;101255.75;;;11.73;90.09
74075;BME280;62428;51.412;5.432;2022-10-23T00:05:27;101249.28;;;11.74;90.00
74075;BME280;62428;51.412;5.432;2022-10-23T00:07:55;101248.78;;;11.72;90.00
74075;BME280;62428;51.412;5.432;2022-10-23T00:10:22;101241.50;;;11.72;90.26
74075;BME280;62428;51.412;5.432;2022-10-23T00:12:48;101241.50;;;11.72;90.30
74075;BME280;62428;51.412;5.432;2022-10-23T00:15:15;101254.44;;;11.70;90.00
74075;BME280;62428;51.412;5.432;2022-10-23T00:17:41;101240.16;;;11.70;90.28
74075;BME280;62428;51.412;5.432;2022-10-23T00:20:07;101240.16;;;11.70;90.43
74075;BME280;62428;51.412;5.432;2022-10-23T00:22:33;101241.28;;;11.69;90.30
74075;BME280;62428;51.412;5.432;2022-10-23T00:24:59;101230.50;;;11.69;90.33
74075;BME280;62428;51.412;5.432;2022-10-23T00:27:24;101232.09;;;11.70;90.17
74075;BME280;62428;51.412;5.432;2022-10-23T00:29:50;101236.69;;;11.69;90.48
74075;BME280;62428;51.412;5.432;2022-10-23T00:32:15;101230.50;;;11.69;90.55
74075;BME280;62428;51.412;5.432;2022-10-23T00:34:41;101234.00;;;11.69;90.33
74075;BME280;62428;51.412;5.432;2022-10-23T00:37:06;101234.28;;;11.68;90.16
74075;BME280;62428;51.412;5.432;2022-10-23T00:39:31;101238.88;;;11.67;90.06
74075;BME280;62428;51.412;5.432;2022-10-23T00:41:57;101236.44;;;11.66;89.95
74075;BME280;62428;51.412;5.432;2022-10-23T00:46:48;101233.75;;;11.66;90.58
74075;BME280;62428;51.412;5.432;2022-10-23T00:49:13;101234.03;;;11.64;90.50
74075;BME280;62428;51.412;5.432;2022-10-23T00:51:42;101239.44;;;11.64;90.38
74075;BME280;62428;51.412;5.432;2022-10-23T00:54:08;101234.88;;;11.65;90.70
74075;BME280;62428;51.412;5.432;2022-10-23T00:56:37;101239.97;;;11.66;91.62
74075;BME280;62428;51.412;5.432;2022-10-23T00:59:03;101237.28;;;11.66;91.13
74075;BME280;62428;51.412;5.432;2022-10-23T01:01:28;101227.81;;;11.69;91.60
74075;BME280;62428;51.412;5.432;2022-10-23T01:03:54;101230.50;;;11.69;91.07
74075;BME280;62428;51.412;5.432;2022-10-23T01:06:38;101222.44;;;11.69;90.58
74075;BME280;62428;51.412;5.432;2022-10-23T01:20:11;101218.84;;;11.54;90.29
74075;BME280;62428;51.412;5.432;2022-10-23T01:22:45;101212.94;;;11.52;90.34
74075;BME280;62428;51.412;5.432;2022-10-23T01:25:40;101196.53;;;11.54;90.66
74075;BME280;62428;51.412;5.432;2022-10-23T01:28:10;101199.50;;;11.52;90.99
74075;BME280;62428;51.412;5.432;2022-10-23T01:30:41;101200.00;;;11.54;91.39
74075;BME280;62428;51.412;5.432;2022-10-23T01:33:14;101204.81;;;11.58;91.41
74075;BME280;62428;51.412;5.432;2022-10-23T01:36:05;101198.03;;;11.60;91.38
74075;BME280;62428;51.412;5.432;2022-10-23T01:38:37;101195.06;;;11.62;92.08
74075;BME280;62428;51.412;5.432;2022-10-23T01:41:10;101198.56;;;11.62;91.53
74075;BME280;62428;51.412;5.432;2022-10-23T01:43:42;101187.78;;;11.62;91.83
74075;BME280;62428;51.412;5.432;2022-10-23T01:46:11;101196.47;;;11.59;90.88
74075;BME280;62428;51.412;5.432;2022-10-23T01:48:39;101181.91;;;11.60;92.17
74075;BME280;62428;51.412;5.432;2022-10-23T01:51:08;101181.09;;;11.60;91.54
74075;BME280;62428;51.412;5.432;2022-10-23T01:53:38;101184.59;;;11.60;92.26
74075;BME280;62428;51.412;5.432;2022-10-23T01:56:09;101183.81;;;11.60;92.28
74075;BME280;62428;51.412;5.432;2022-10-23T01:58:36;101183.00;;;11.59;92.28
74075;BME280;62428;51.412;5.432;2022-10-23T02:01:05;101179.50;;;11.59;92.78
74075;BME280;62428;51.412;5.432;2022-10-23T02:03:32;101178.41;;;11.60;92.70
74075;BME280;62428;51.412;5.432;2022-10-23T02:05:59;101176.81;;;11.59;92.54
74075;BME280;62428;51.412;5.432;2022-10-23T02:08:25;101178.69;;;11.58;92.34
74075;BME280;62428;51.412;5.432;2022-10-23T02:11:12;101169.56;;;11.59;92.18
74075;BME280;62428;51.412;5.432;2022-10-23T02:13:46;101173.03;;;11.60;92.36
74075;BME280;62428;51.412;5.432;2022-10-23T02:19:15;101163.84;;;11.61;92.41
74075;BME280;62428;51.412;5.432;2022-10-23T02:21:56;101167.38;;;11.61;92.45
74075;BME280;62428;51.412;5.432;2022-10-23T02:24:32;101167.38;;;11.61;92.51
74075;BME280;62428;51.412;5.432;2022-10-23T02:27:01;101167.38;;;11.61;92.48
74075;BME280;62428;51.412;5.432;2022-10-23T02:29:33;101169.78;;;11.63;92.46
74075;BME280;62428;51.412;5.432;2022-10-23T02:32:00;101151.72;;;11.63;92.59
74075;BME280;62428;51.412;5.432;2022-10-23T02:34:26;101154.41;;;11.63;92.48
74075;BME280;62428;51.412;5.432;2022-10-23T02:36:51;101148.25;;;11.63;92.75
74075;BME280;62428;51.412;5.432;2022-10-23T02:39:17;101133.97;;;11.62;92.56
74075;BME280;62428;51.412;5.432;2022-10-23T02:41:54;101139.06;;;11.64;92.83
74075;BME280;62428;51.412;5.432;2022-10-23T02:54:59;101094.09;;;11.64;92.98
74075;BME280;62428;51.412;5.432;2022-10-23T03:00:30;101083.88;;;11.66;93.08
74075;BME280;62428;51.412;5.432;2022-10-23T03:03:05;101082.75;;;11.67;93.31
74075;BME280;62428;51.412;5.432;2022-10-23T03:05:37;101075.81;;;11.66;93.50
74075;BME280;62428;51.412;5.432;2022-10-23T03:08:05;101072.78;;;11.68;93.25
74075;BME280;62428;51.412;5.432;2022-10-23T03:10:31;101075.47;;;11.68;93.30
74075;BME280;62428;51.412;5.432;2022-10-23T03:12:57;101076.81;;;11.70;93.33
74075;BME280;62428;51.412;5.432;2022-10-23T03:15:22;101071.72;;;11.69;93.29
74075;BME280;62428;51.412;5.432;2022-10-23T03:17:47;101069.53;;;11.71;93.13
74075;BME280;62428;51.412;5.432;2022-10-23T03:20:13;101069.53;;;11.71;93.32
74075;BME280;62428;51.412;5.432;2022-10-23T03:22:38;101056.06;;;11.71;93.51
74075;BME280;62428;51.412;5.432;2022-10-23T03:25:04;101056.84;;;11.71;93.10
74075;BME280;62428;51.412;5.432;2022-10-23T03:27:30;101055.00;;;11.72;93.59
74075;BME280;62428;51.412;5.432;2022-10-23T03:29:55;101055.78;;;11.72;93.09
74075;BME280;62428;51.412;5.432;2022-10-23T03:32:20;101052.28;;;11.72;93.40
74075;BME280;62428;51.412;5.432;2022-10-23T03:34:46;101053.59;;;11.74;93.22
74075;BME280;62428;51.412;5.432;2022-10-23T03:37:11;101050.91;;;11.74;93.01
74075;BME280;62428;51.412;5.432;2022-10-23T03:39:36;101045.81;;;11.73;93.13
74075;BME280;62428;51.412;5.432;2022-10-23T03:42:02;101047.91;;;11.76;93.29
74075;BME280;62428;51.412;5.432;2022-10-23T03:44:27;101043.59;;;11.75;93.26
74075;BME280;62428;51.412;5.432;2022-10-23T03:46:55;101047.13;;;11.76;93.26
74075;BME280;62428;51.412;5.432;2022-10-23T03:49:20;101040.34;;;11.78;93.28
74075;BME280;62428;51.412;5.432;2022-10-23T03:51:45;101041.13;;;11.79;93.28
74075;BME280;62428;51.412;5.432;2022-10-23T03:54:20;101040.34;;;11.78;93.34
74075;BME280;62428;51.412;5.432;2022-10-23T03:56:46;101030.38;;;11.79;93.27
74075;BME280;62428;51.412;5.432;2022-10-23T03:59:11;101025.81;;;11.79;93.04
74075;BME280;62428;51.412;5.432;2022-10-23T04:01:36;101009.66;;;11.79;93.26
74075;BME280;62428;51.412;5.432;2022-10-23T04:04:02;101015.81;;;11.80;93.35
74075;BME280;62428;51.412;5.432;2022-10-23T04:06:27;101012.34;;;11.79;93.30
74075;BME280;62428;51.412;5.432;2022-10-23T04:08:52;101010.72;;;11.78;93.27
74075;BME280;62428;51.412;5.432;2022-10-23T04:11:18;101003.44;;;11.79;93.47
74075;BME280;62428;51.412;5.432;2022-10-23T04:13:43;100995.38;;;11.79;93.40
74075;BME280;62428;51.412;5.432;2022-10-23T04:16:08;100998.06;;;11.79;93.39
74075;BME280;62428;51.412;5.432;2022-10-23T04:18:34;100998.88;;;11.79;93.41
74075;BME280;62428;51.412;5.432;2022-10-23T04:20:59;101004.56;;;11.78;93.52
74075;BME280;62428;51.412;5.432;2022-10-23T04:23:24;101003.44;;;11.79;93.52
74075;BME280;62428;51.412;5.432;2022-10-23T04:25:50;101004.25;;;11.79;93.63
74075;BME280;62428;51.412;5.432;2022-10-23T04:28:15;101005.06;;;11.80;93.74
74075;BME280;62428;51.412;5.432;2022-10-23T04:30:40;101005.84;;;11.80;93.49
74075;BME280;62428;51.412;5.432;2022-10-23T04:33:06;101002.38;;;11.80;93.50
74075;BME280;62428;51.412;5.432;2022-10-23T04:35:31;101015.03;;;11.79;93.67
74075;BME280;62428;51.412;5.432;2022-10-23T04:37:56;101007.75;;;11.80;93.72
74075;BME280;62428;51.412;5.432;2022-10-23T04:40:22;101008.53;;;11.80;93.63
74075;BME280;62428;51.412;5.432;2022-10-23T04:42:47;101004.25;;;11.79;93.68
74075;BME280;62428;51.412;5.432;2022-10-23T04:45:13;101007.25;;;11.78;93.68
74075;BME280;62428;51.412;5.432;2022-10-23T04:47:38;101006.13;;;11.79;93.68
74075;BME280;62428;51.412;5.432;2022-10-23T04:50:04;100997.28;;;11.78;93.63
74075;BME280;62428;51.412;5.432;2022-10-23T04:52:29;100993.50;;;11.79;93.61
74075;BME280;62428;51.412;5.432;2022-10-23T04:54:55;100993.50;;;11.79;93.77
74075;BME280;62428;51.412;5.432;2022-10-23T04:57:20;100993.78;;;11.78;93.73
74075;BME280;62428;51.412;5.432;2022-10-23T04:59:45;100991.88;;;11.78;93.64
74075;BME280;62428;51.412;5.432;2022-10-23T05:02:11;100989.19;;;11.78;93.76
74075;BME280;62428;51.412;5.432;2022-10-23T05:04:36;100994.28;;;11.80;93.79
74075;BME280;62428;51.412;5.432;2022-10-23T05:07:01;100991.88;;;11.78;93.92
74075;BME280;62428;51.412;5.432;2022-10-23T05:09:27;100989.19;;;11.78;93.85
74075;BME280;62428;51.412;5.432;2022-10-23T05:11:52;100988.41;;;11.78;93.80
74075;BME280;62428;51.412;5.432;2022-10-23T05:14:17;100982.19;;;11.77;94.05
74075;BME280;62428;51.412;5.432;2022-10-23T05:16:59;100982.72;;;11.79;94.02
74075;BME280;62428;51.412;5.432;2022-10-23T05:19:33;100978.44;;;11.78;94.12
74075;BME280;62428;51.412;5.432;2022-10-23T05:22:00;100977.34;;;11.79;93.99
74075;BME280;62428;51.412;5.432;2022-10-23T05:24:26;100971.16;;;11.79;94.03
74075;BME280;62428;51.412;5.432;2022-10-23T05:26:51;100970.06;;;11.80;94.08
74075;BME280;62428;51.412;5.432;2022-10-23T05:29:18;100967.97;;;11.77;94.08
74075;BME280;62428;51.412;5.432;2022-10-23T05:31:44;100964.19;;;11.78;93.93
74075;BME280;62428;51.412;5.432;2022-10-23T05:34:12;100964.19;;;11.78;93.93
74075;BME280;62428;51.412;5.432;2022-10-23T05:36:39;100957.97;;;11.77;93.98
74075;BME280;62428;51.412;5.432;2022-10-23T05:39:04;100953.41;;;11.78;94.12
74075;BME280;62428;51.412;5.432;2022-10-23T05:41:30;100954.50;;;11.77;93.98
74075;BME280;62428;51.412;5.432;2022-10-23T05:43:55;100956.41;;;11.76;93.86
74075;BME280;62428;51.412;5.432;2022-10-23T05:46:21;100948.31;;;11.76;93.95
74075;BME280;62428;51.412;5.432;2022-10-23T05:48:51;100951.81;;;11.77;94.20
74075;BME280;62428;51.412;5.432;2022-10-23T05:51:18;100951.50;;;11.78;94.06
74075;BME280;62428;51.412;5.432;2022-10-23T05:53:50;100953.41;;;11.78;94.42
74075;BME280;62428;51.412;5.432;2022-10-23T05:56:16;100955.00;;;11.79;94.35
74075;BME280;62428;51.412;5.432;2022-10-23T05:58:42;100949.31;;;11.80;94.32
74075;BME280;62428;51.412;5.432;2022-10-23T06:01:10;100947.41;;;11.81;94.38
74075;BME280;62428;51.412;5.432;2022-10-23T06:03:37;100947.94;;;11.83;94.09
74075;BME280;62428;51.412;5.432;2022-10-23T06:06:03;100944.44;;;11.82;94.40
74075;BME280;62428;51.412;5.432;2022-10-23T06:08:30;100935.28;;;11.83;94.34
74075;BME280;62428;51.412;5.432;2022-10-23T06:10:55;100936.06;;;11.84;94.26
74075;BME280;62428;51.412;5.432;2022-10-23T06:13:20;100938.47;;;11.85;94.40
74075;BME280;62428;51.412;5.432;2022-10-23T06:15:46;100938.47;;;11.85;94.43
74075;BME280;62428;51.412;5.432;2022-10-23T06:18:11;100937.06;;;11.88;94.54
74075;BME280;62428;51.412;5.432;2022-10-23T06:20:38;100937.88;;;11.88;94.20
74075;BME280;62428;51.412;5.432;2022-10-23T06:23:04;100929.50;;;11.90;94.40
74075;BME280;62428;51.412;5.432;2022-10-23T06:25:30;100926.81;;;11.90;94.51
74075;BME280;62428;51.412;5.432;2022-10-23T06:27:55;100933.03;;;11.90;94.48
74075;BME280;62428;51.412;5.432;2022-10-23T06:30:21;100927.63;;;11.90;94.56
74075;BME280;62428;51.412;5.432;2022-10-23T06:32:46;100919.28;;;11.92;94.63
74075;BME280;62428;51.412;5.432;2022-10-23T06:35:12;100919.28;;;11.92;94.72
74075;BME280;62428;51.412;5.432;2022-10-23T06:37:37;100907.38;;;11.93;94.56
74075;BME280;62428;51.412;5.432;2022-10-23T06:40:03;100917.06;;;11.94;94.43
74075;BME280;62428;51.412;5.432;2022-10-23T06:42:29;100904.41;;;11.95;94.61
74075;BME280;62428;51.412;5.432;2022-10-23T06:44:55;100891.72;;;11.95;94.50
74075;BME280;62428;51.412;5.432;2022-10-23T06:47:20;100907.59;;;11.97;94.57
74075;BME280;62428;51.412;5.432;2022-10-23T06:49:46;100895.75;;;11.98;94.55
74075;BME280;62428;51.412;5.432;2022-10-23T06:52:11;100892.75;;;11.99;94.64
74075;BME280;62428;51.412;5.432;2022-10-23T06:54:36;100887.84;;;12.01;94.43
74075;BME280;62428;51.412;5.432;2022-10-23T06:57:02;100883.25;;;12.02;94.41
74075;BME280;62428;51.412;5.432;2022-10-23T06:59:27;100885.66;;;12.03;94.56
74075;BME280;62428;51.412;5.432;2022-10-23T07:01:52;100886.94;;;12.06;94.62
74075;BME280;62428;51.412;5.432;2022-10-23T07:04:18;100888.56;;;12.07;94.42
74075;BME280;62428;51.412;5.432;2022-10-23T07:06:43;100882.88;;;12.08;94.55
74075;BME280;62428;51.412;5.432;2022-10-23T07:09:08;100887.94;;;12.10;94.45
74075;BME280;62428;51.412;5.432;2022-10-23T07:11:34;100883.38;;;12.10;94.50
74075;BME280;62428;51.412;5.432;2022-10-23T07:13:59;100886.25;;;12.14;94.50
74075;BME280;62428;51.412;5.432;2022-10-23T07:16:24;100878.97;;;12.15;94.46
74075;BME280;62428;51.412;5.432;2022-10-23T07:18:55;100881.38;;;12.16;94.61
74075;BME280;62428;51.412;5.432;2022-10-23T07:21:26;100876.47;;;12.18;94.61
74075;BME280;62428;51.412;5.432;2022-10-23T07:23:51;100875.88;;;12.21;94.54
74075;BME280;62428;51.412;5.432;2022-10-23T07:26:17;100879.84;;;12.24;94.56
74075;BME280;62428;51.412;5.432;2022-10-23T07:28:43;100873.06;;;12.26;94.64
74075;BME280;62428;51.412;5.432;2022-10-23T07:31:10;100867.06;;;12.29;94.41
74075;BME280;62428;51.412;5.432;2022-10-23T07:33:36;100862.66;;;12.34;94.49
74075;BME280;62428;51.412;5.432;2022-10-23T07:36:06;100865.84;;;12.36;94.40
74075;BME280;62428;51.412;5.432;2022-10-23T07:38:32;100866.03;;;12.39;94.27
74075;BME280;62428;51.412;5.432;2022-10-23T07:40:58;100856.88;;;12.40;94.15
74075;BME280;62428;51.412;5.432;2022-10-23T07:43:24;100860.84;;;12.43;94.35
74075;BME280;62428;51.412;5.432;2022-10-23T07:45:51;100869.94;;;12.47;94.37
74075;BME280;62428;51.412;5.432;2022-10-23T07:48:16;100860.75;;;12.48;94.13
74075;BME280;62428;51.412;5.432;2022-10-23T07:50:42;100851.28;;;12.50;94.26
74075;BME280;62428;51.412;5.432;2022-10-23T07:53:16;100856.84;;;12.54;94.18
74075;BME280;62428;51.412;5.432;2022-10-23T07:55:43;100862.72;;;12.56;94.20
74075;BME280;62428;51.412;5.432;2022-10-23T07:58:08;100859.41;;;12.59;94.24
74075;BME280;62428;51.412;5.432;2022-10-23T08:00:33;100863.41;;;12.62;94.09
74075;BME280;62428;51.412;5.432;2022-10-23T08:02:59;100868.97;;;12.65;93.92
74075;BME280;62428;51.412;5.432;2022-10-23T08:05:24;100864.88;;;12.68;93.80
74075;BME280;62428;51.412;5.432;2022-10-23T08:07:50;100863.97;;;12.73;93.61
74075;BME280;62428;51.412;5.432;2022-10-23T08:10:15;100862.56;;;12.75;93.66
74075;BME280;62428;51.412;5.432;2022-10-23T08:12:40;100857.84;;;12.81;93.62
74075;BME280;62428;51.412;5.432;2022-10-23T08:15:06;100859.13;;;12.83;93.65
74075;BME280;62428;51.412;5.432;2022-10-23T08:17:31;100857.72;;;12.86;93.50
74075;BME280;62428;51.412;5.432;2022-10-23T08:19:57;100859.81;;;12.89;93.51
74075;BME280;62428;51.412;5.432;2022-10-23T08:22:22;100858.41;;;12.92;93.23
74075;BME280;62428;51.412;5.432;2022-10-23T08:24:47;100852.41;;;12.95;93.46
74075;BME280;62428;51.412;5.432;2022-10-23T08:27:13;100852.28;;;13.00;93.21
74075;BME280;62428;51.412;5.432;2022-10-23T08:29:38;100847.38;;;13.02;93.30
74075;BME280;62428;51.412;5.432;2022-10-23T08:32:03;100836.75;;;13.05;92.91
74075;BME280;62428;51.412;5.432;2022-10-23T08:34:29;100826.94;;;13.10;93.09
74075;BME280;62428;51.412;5.432;2022-10-23T08:36:55;100828.22;;;13.12;92.63
74075;BME280;62428;51.412;5.432;2022-10-23T08:39:20;100834.59;;;13.16;92.91
74075;BME280;62428;51.412;5.432;2022-10-23T08:41:48;100833.19;;;13.19;92.92
74075;BME280;62428;51.412;5.432;2022-10-23T08:47:01;100822.28;;;13.24;92.49
74075;BME280;62428;51.412;5.432;2022-10-23T08:49:44;100822.94;;;13.30;92.51
74075;BME280;62428;51.412;5.432;2022-10-23T08:52:16;100823.13;;;13.33;92.45
74075;BME280;62428;51.412;5.432;2022-10-23T08:57:46;100803.81;;;13.40;92.36
74075;BME280;62428;51.412;5.432;2022-10-23T09:00:15;100804.59;;;13.40;92.39
74075;BME280;62428;51.412;5.432;2022-10-23T09:02:50;100805.06;;;13.42;92.06
74075;BME280;62428;51.412;5.432;2022-10-23T09:05:26;100794.16;;;13.48;91.83
74075;BME280;62428;51.412;5.432;2022-10-23T09:08:10;100798.13;;;13.50;91.81
74075;BME280;62428;51.412;5.432;2022-10-23T09:10:54;100795.59;;;13.54;91.85
74075;BME280;62428;51.412;5.432;2022-10-23T09:16:25;100784.34;;;13.60;91.92
74075;BME280;62428;51.412;5.432;2022-10-23T09:18:48;100789.13;;;13.63;91.66
74075;BME280;62428;51.412;5.432;2022-10-23T09:21:14;100783.41;;;13.65;91.72
74075;BME280;62428;51.412;5.432;2022-10-23T09:23:40;100775.78;;;13.67;91.56
74075;BME280;62428;51.412;5.432;2022-10-23T09:26:15;100767.84;;;13.71;91.32
74075;BME280;62428;51.412;5.432;2022-10-23T09:28:53;100765.31;;;13.74;91.40
74075;BME280;62428;51.412;5.432;2022-10-23T09:31:21;100747.72;;;13.77;90.86
74075;BME280;62428;51.412;5.432;2022-10-23T09:33:54;100750.56;;;13.80;90.72
74075;BME280;62428;51.412;5.432;2022-10-23T09:36:21;100753.44;;;13.84;90.76
74075;BME280;62428;51.412;5.432;2022-10-23T09:38:51;100742.00;;;13.87;90.92
74075;BME280;62428;51.412;5.432;2022-10-23T09:41:29;100734.41;;;13.89;90.93
74075;BME280;62428;51.412;5.432;2022-10-23T09:44:19;100746.47;;;13.92;91.02
74075;BME280;62428;51.412;5.432;2022-10-23T09:46:47;100744.53;;;13.92;91.01
74075;BME280;62428;51.412;5.432;2022-10-23T09:54:37;100740.13;;;13.96;90.38
74075;BME280;62428;51.412;5.432;2022-10-23T09:57:18;100729.44;;;14.00;90.80
74075;BME280;62428;51.412;5.432;2022-10-23T10:00:14;100725.03;;;14.04;90.78
74075;BME280;62428;51.412;5.432;2022-10-23T10:02:42;100720.88;;;14.07;90.93
74075;BME280;62428;51.412;5.432;2022-10-23T10:05:34;100710.72;;;14.12;90.66
74075;BME280;62428;51.412;5.432;2022-10-23T10:10:38;100695.44;;;14.16;90.08
74075;BME280;62428;51.412;5.432;2022-10-23T10:18:42;100678.13;;;14.26;89.81
74075;BME280;62428;51.412;5.432;2022-10-23T10:21:17;100679.69;;;14.27;90.17
74075;BME280;62428;51.412;5.432;2022-10-23T10:23:49;100683.69;;;14.30;89.67
74075;BME280;62428;51.412;5.432;2022-10-23T10:40:29;100676.78;;;14.67;88.97
74075;BME280;62428;51.412;5.432;2022-10-23T10:45:54;100669.25;;;14.82;88.34
74075;BME280;62428;51.412;5.432;2022-10-23T10:48:35;100657.97;;;14.88;87.82
74075;BME280;62428;51.412;5.432;2022-10-23T10:51:04;100653.63;;;14.96;87.48
74075;BME280;62428;51.412;5.432;2022-10-23T10:56:11;100629.38;;;15.08;87.94
74075;BME280;62428;51.412;5.432;2022-10-23T10:58:49;100641.25;;;15.16;87.44
74075;BME280;62428;51.412;5.432;2022-10-23T11:01:36;100637.25;;;15.22;87.69
74075;BME280;62428;51.412;5.432;2022-10-23T11:04:12;100640.91;;;15.26;87.02
74075;BME280;62428;51.412;5.432;2022-10-23T11:06:40;100636.72;;;15.29;86.70
74075;BME280;62428;51.412;5.432;2022-10-23T11:09:24;100656.13;;;15.31;87.35
74075;BME280;62428;51.412;5.432;2022-10-23T11:11:51;100641.50;;;15.32;87.00
74075;BME280;62428;51.412;5.432;2022-10-23T11:14:28;100651.66;;;15.35;87.44
74075;BME280;62428;51.412;5.432;2022-10-23T11:19:29;100637.75;;;15.45;86.92
74075;BME280;62428;51.412;5.432;2022-10-23T11:22:31;100630.22;;;15.51;86.30
74075;BME280;62428;51.412;5.432;2022-10-23T11:38:31;100592.03;;;15.86;85.29
74075;BME280;62428;51.412;5.432;2022-10-23T11:41:00;100596.16;;;15.92;84.67
74075;BME280;62428;51.412;5.432;2022-10-23T11:45:55;100580.25;;;16.03;84.81
74075;BME280;62428;51.412;5.432;2022-10-23T11:48:38;100587.03;;;16.09;84.66
74075;BME280;62428;51.412;5.432;2022-10-23T11:51:04;100585.25;;;16.13;85.05
74075;BME280;62428;51.412;5.432;2022-10-23T11:56:22;100578.81;;;16.18;84.08
74075;BME280;62428;51.412;5.432;2022-10-23T11:58:50;100580.06;;;16.20;84.17
74075;BME280;62428;51.412;5.432;2022-10-23T12:03:59;100571.59;;;16.22;84.50
74075;BME280;62428;51.412;5.432;2022-10-23T12:06:29;100574.31;;;16.22;85.48
74075;BME280;62428;51.412;5.432;2022-10-23T12:09:03;100566.63;;;16.24;84.69
74075;BME280;62428;51.412;5.432;2022-10-23T12:12:00;100565.19;;;16.26;84.56
74075;BME280;62428;51.412;5.432;2022-10-23T12:14:33;100559.53;;;16.31;84.13
74075;BME280;62428;51.412;5.432;2022-10-23T12:17:00;100559.63;;;16.35;84.04
74075;BME280;62428;51.412;5.432;2022-10-23T12:19:29;100558.19;;;16.38;83.49
74075;BME280;62428;51.412;5.432;2022-10-23T12:22:00;100547.47;;;16.41;83.96
74075;BME280;62428;51.412;5.432;2022-10-23T12:24:31;100547.91;;;16.43;83.81
74075;BME280;62428;51.412;5.432;2022-10-23T12:38:24;100517.50;;;16.50;84.01
74075;BME280;62428;51.412;5.432;2022-10-23T12:40:53;100512.19;;;16.53;83.20
74075;BME280;62428;51.412;5.432;2022-10-23T12:43:28;100499.22;;;16.59;83.49
74075;BME280;62428;51.412;5.432;2022-10-23T12:45:55;100500.91;;;16.64;83.14
74075;BME280;62428;51.412;5.432;2022-10-23T12:48:23;100493.22;;;16.66;83.12
74075;BME280;62428;51.412;5.432;2022-10-23T12:50:51;100497.84;;;16.65;83.65
74075;BME280;62428;51.412;5.432;2022-10-23T12:53:18;100487.78;;;16.66;83.47
74075;BME280;62428;51.412;5.432;2022-10-23T12:55:59;100489.38;;;16.67;83.71
74075;BME280;62428;51.412;5.432;2022-10-23T12:58:31;100488.69;;;16.70;84.24
74075;BME280;62428;51.412;5.432;2022-10-23T13:00:59;100485.19;;;16.69;83.95
74075;BME280;62428;51.412;5.432;2022-10-23T13:03:25;100480.53;;;16.70;83.53
74075;BME280;62428;51.412;5.432;2022-10-23T13:05:53;100476.38;;;16.72;84.68
74075;BME280;62428;51.412;5.432;2022-10-23T13:08:21;100472.53;;;16.73;83.35
74075;BME280;62428;51.412;5.432;2022-10-23T13:10:47;100468.69;;;16.75;83.52
74075;BME280;62428;51.412;5.432;2022-10-23T13:13:18;100465.31;;;16.78;83.18
74075;BME280;62428;51.412;5.432;2022-10-23T13:15:44;100457.28;;;16.81;83.31
74075;BME280;62428;51.412;5.432;2022-10-23T13:18:11;100455.34;;;16.82;83.39
74075;BME280;62428;51.412;5.432;2022-10-23T13:20:53;100444.97;;;16.84;83.55
74075;BME280;62428;51.412;5.432;2022-10-23T13:23:29;100436.94;;;16.87;83.50
74075;BME280;62428;51.412;5.432;2022-10-23T13:25:59;100430.81;;;16.90;83.29
74075;BME280;62428;51.412;5.432;2022-10-23T13:28:40;100425.06;;;16.92;83.93
74075;BME280;62428;51.412;5.432;2022-10-23T13:33:49;100422.25;;;16.88;83.98
74075;BME280;62428;51.412;5.432;2022-10-23T13:36:21;100416.53;;;16.94;83.80
74075;BME280;62428;51.412;5.432;2022-10-23T13:41:25;100417.09;;;16.99;83.79
74075;BME280;62428;51.412;5.432;2022-10-23T13:43:51;100406.00;;;17.04;83.44
74075;BME280;62428;51.412;5.432;2022-10-23T13:46:22;100407.69;;;17.09;83.68
74075;BME280;62428;51.412;5.432;2022-10-23T13:48:48;100413.22;;;17.13;83.61
74075;BME280;62428;51.412;5.432;2022-10-23T13:51:19;100408.56;;;17.13;82.81
74075;BME280;62428;51.412;5.432;2022-10-23T13:53:45;100417.59;;;17.17;82.70
74075;BME280;62428;51.412;5.432;2022-10-23T13:56:12;100418.03;;;17.19;82.67
74075;BME280;62428;51.412;5.432;2022-10-23T13:58:37;100414.88;;;17.17;83.22
74075;BME280;62428;51.412;5.432;2022-10-23T14:01:03;100426.88;;;17.16;84.16
74075;BME280;62428;51.412;5.432;2022-10-23T14:03:29;100415.59;;;17.14;84.00
74075;BME280;62428;51.412;5.432;2022-10-23T14:05:54;100410.16;;;17.14;82.44
74075;BME280;62428;51.412;5.432;2022-10-23T14:08:20;100402.47;;;17.16;82.46
74075;BME280;62428;51.412;5.432;2022-10-23T14:10:46;100397.81;;;17.17;82.59
74075;BME280;62428;51.412;5.432;2022-10-23T14:13:11;100400.97;;;17.19;82.11
74075;BME280;62428;51.412;5.432;2022-10-23T14:15:36;100393.97;;;17.18;80.91
74075;BME280;62428;51.412;5.432;2022-10-23T14:18:02;100397.03;;;17.16;82.31
74075;BME280;62428;51.412;5.432;2022-10-23T14:20:27;100390.78;;;17.16;81.56
74075;BME280;62428;51.412;5.432;2022-10-23T14:22:53;100399.97;;;17.11;82.76
74075;BME280;62428;51.412;5.432;2022-10-23T14:25:18;100405.41;;;17.11;82.46
74075;BME280;62428;51.412;5.432;2022-10-23T14:27:44;100402.59;;;17.07;82.78
74075;BME280;62428;51.412;5.432;2022-10-23T14:30:10;100402.94;;;17.06;82.26
74075;BME280;62428;51.412;5.432;2022-10-23T14:32:35;100407.59;;;17.05;83.62
74075;BME280;62428;51.412;5.432;2022-10-23T14:35:01;100406.81;;;17.05;82.58
74075;BME280;62428;51.412;5.432;2022-10-23T14:37:31;100406.34;;;17.03;82.76
74075;BME280;62428;51.412;5.432;2022-10-23T14:39:57;100408.59;;;17.01;82.93
74075;BME280;62428;51.412;5.432;2022-10-23T14:42:23;100401.97;;;16.98;82.87
74075;BME280;62428;51.412;5.432;2022-10-23T14:44:49;100397.31;;;16.99;83.06
74075;BME280;62428;51.412;5.432;2022-10-23T14:47:15;100397.31;;;16.99;82.66
74075;BME280;62428;51.412;5.432;2022-10-23T14:49:41;100393.38;;;16.96;83.73